Phoenix, Arizona
Current Conditions -  °F | °C
As of 8:51 PM on Tuesday 27 Jan 2015 (Local Time) from KPHX Reporting Station
Few Clouds Few Clouds  
Wind Chill: 63°   Ceiling: Unl
Heat Index: 63°   Visibility: 10mi
Dew Point: 50°   Wind: 3mph
Humidity: 63%   Direction: 230°SW
Pressure: 30.13"   Gusts: NA
Location:  33.45°N, 112.08°W
Report Text: KPHX 280351Z 23003KT 10SM FEW250 17/10 A3013 RMK AO2 SLP194 T01720100
Loading
Personal Weather Stations






























Interactive Weather Map New forecast layout! Learn more

10-Day Weather Forecast

Advertisements
Track Severe Weather on mobile